Time;durP1;ratioP1;P1;durP2;ratioP2;P2;SDS_P1;SDS_P2;PMS_P1;PMS_P2;Temp;Humidity;BMP_temperature;BMP_pressure;BME280_temperature;BME280_humidity;BME280_pressure;Samples;Min_cycle;Max_cycle;Signal;HPM_P1;HPM_P2
2022/04/07 00:00:05;;;;;;;9.97;2.97;;;;;;;;;;5052213;28;20174;-68
2022/04/07 00:02:30;;;;;;;5.87;2.30;;;;;;;;;;5051879;28;20240;-70
2022/04/07 00:04:56;;;;;;;4.57;2.13;;;;;;;;;;5051999;28;20551;-68
2022/04/07 00:07:21;;;;;;;4.13;2.40;;;;;;;;;;5051334;28;20181;-69
2022/04/07 00:09:46;;;;;;;5.77;2.53;;;;;;;;;;5049210;28;20260;-68
2022/04/07 00:12:11;;;;;;;10.37;2.40;;;;;;;;;;5048415;28;20190;-68
2022/04/07 00:14:36;;;;;;;12.23;2.70;;;;;;;;;;5052099;28;20284;-68
2022/04/07 00:17:02;;;;;;;7.40;1.90;;;;;;;;;;5044809;28;20614;-68
2022/04/07 00:19:27;;;;;;;9.20;2.20;;;;;;;;;;5049267;28;20698;-68
2022/04/07 00:21:52;;;;;;;8.63;1.97;;;;;;;;;;5043449;28;20696;-68
2022/04/07 00:24:18;;;;;;;13.20;2.13;;;;;;;;;;5050304;28;20178;-68
2022/04/07 00:26:43;;;;;;;8.27;2.53;;;;;;;;;;5049550;28;20170;-68
2022/04/07 00:29:08;;;;;;;4.43;1.63;;;;;;;;;;5052847;28;20599;-68
2022/04/07 00:31:39;;;;;;;10.17;2.23;;;;;;;;;;5050743;28;20211;-68
2022/04/07 00:34:08;;;;;;;11.13;2.30;;;;;;;;;;5048694;28;20546;-68
2022/04/07 00:36:33;;;;;;;9.83;2.17;;;;;;;;;;5049735;28;20277;-69
2022/04/07 00:38:59;;;;;;;14.30;3.60;;;;;;;;;;5050780;28;20300;-68
2022/04/07 00:41:24;;;;;;;8.43;2.00;;;;;;;;;;5040809;28;20629;-68
2022/04/07 00:43:50;;;;;;;7.77;2.17;;;;;;;;;;5045450;28;20165;-68
2022/04/07 00:46:15;;;;;;;9.17;2.20;;;;;;;;;;5046057;28;20225;-69
2022/04/07 00:48:40;;;;;;;12.70;2.40;;;;;;;;;;5050195;28;20221;-69
2022/04/07 00:51:06;;;;;;;10.83;2.87;;;;;;;;;;5048159;28;20174;-68
2022/04/07 00:53:31;;;;;;;13.07;3.70;;;;;;;;;;5049409;28;20551;-69
2022/04/07 00:56:00;;;;;;;9.70;2.20;;;;;;;;;;5048413;28;20212;-66
2022/04/07 00:58:26;;;;;;;8.17;2.30;;;;;;;;;;5048902;28;20401;-69
2022/04/07 01:00:52;;;;;;;10.60;2.33;;;;;;;;;;5048204;28;20209;-70
2022/04/07 01:03:17;;;;;;;10.90;2.57;;;;;;;;;;5045182;28;20186;-70
2022/04/07 01:05:42;;;;;;;10.07;3.20;;;;;;;;;;5051017;28;20181;-70
2022/04/07 01:08:08;;;;;;;9.23;2.53;;;;;;;;;;5049601;28;20592;-70
2022/04/07 01:10:34;;;;;;;9.43;2.53;;;;;;;;;;5045991;28;20271;-69
2022/04/07 01:12:59;;;;;;;14.53;4.87;;;;;;;;;;5049377;28;20252;-70
2022/04/07 01:15:25;;;;;;;10.07;2.30;;;;;;;;;;5047277;28;20185;-70
2022/04/07 01:17:50;;;;;;;12.30;3.37;;;;;;;;;;5047290;28;20197;-69
2022/04/07 01:20:15;;;;;;;10.03;3.67;;;;;;;;;;5050527;28;20181;-69
2022/04/07 01:22:41;;;;;;;9.97;2.13;;;;;;;;;;5046174;28;20201;-69
2022/04/07 01:25:07;;;;;;;12.73;3.00;;;;;;;;;;5047475;28;20173;-69
2022/04/07 01:27:32;;;;;;;13.57;3.20;;;;;;;;;;5049998;28;20193;-70
2022/04/07 01:30:00;;;;;;;8.77;2.77;;;;;;;;;;5050302;28;20178;-69
2022/04/07 01:32:34;;;;;;;12.63;2.93;;;;;;;;;;5050812;28;20177;-69
2022/04/07 01:34:59;;;;;;;10.07;3.17;;;;;;;;;;5044440;28;20619;-70
2022/04/07 01:37:25;;;;;;;15.97;3.73;;;;;;;;;;5049393;28;20213;-69
2022/04/07 01:39:50;;;;;;;13.93;4.33;;;;;;;;;;5050994;28;20659;-70
2022/04/07 01:42:16;;;;;;;15.00;4.37;;;;;;;;;;5048399;28;20735;-68
2022/04/07 01:44:44;;;;;;;13.07;3.70;;;;;;;;;;5044482;28;20178;-69
2022/04/07 01:47:09;;;;;;;12.27;3.90;;;;;;;;;;5038119;28;20745;-68
2022/04/07 01:49:35;;;;;;;14.27;4.07;;;;;;;;;;5045524;28;20169;-68
2022/04/07 01:52:02;;;;;;;11.20;3.43;;;;;;;;;;5048402;28;20268;-68
2022/04/07 01:54:27;;;;;;;14.80;3.37;;;;;;;;;;5044225;28;20184;-68
2022/04/07 01:56:52;;;;;;;19.13;3.63;;;;;;;;;;5050599;28;20174;-70
2022/04/07 01:59:18;;;;;;;9.37;2.63;;;;;;;;;;5048860;28;20201;-69
2022/04/07 02:01:44;;;;;;;12.93;2.77;;;;;;;;;;5047521;28;20232;-69
2022/04/07 02:04:09;;;;;;;15.33;3.70;;;;;;;;;;5047180;28;20460;-69
2022/04/07 02:06:35;;;;;;;20.70;4.07;;;;;;;;;;5050277;28;20205;-68
2022/04/07 02:09:02;;;;;;;11.23;3.70;;;;;;;;;;5049910;28;20194;-70
2022/04/07 02:11:28;;;;;;;12.27;4.03;;;;;;;;;;5049698;28;20267;-69
2022/04/07 02:13:53;;;;;;;14.77;4.13;;;;;;;;;;5050561;28;20663;-69
2022/04/07 02:16:20;;;;;;;18.03;3.73;;;;;;;;;;5048324;28;20184;-67
2022/04/07 02:18:45;;;;;;;13.87;3.00;;;;;;;;;;5047857;28;20568;-67
2022/04/07 02:21:11;;;;;;;13.17;2.60;;;;;;;;;;5050608;28;20196;-68
2022/04/07 02:23:42;;;;;;;8.93;3.47;;;;;;;;;;5049102;28;20182;-68
2022/04/07 02:26:11;;;;;;;12.00;2.60;;;;;;;;;;5049074;28;20387;-69
2022/04/07 02:28:36;;;;;;;14.53;3.03;;;;;;;;;;5049150;28;20202;-69
2022/04/07 02:31:01;;;;;;;11.70;2.83;;;;;;;;;;5049948;28;20177;-69
2022/04/07 02:33:26;;;;;;;8.40;2.57;;;;;;;;;;5048964;28;20177;-69
2022/04/07 02:35:51;;;;;;;11.17;3.07;;;;;;;;;;5049676;28;20260;-69
2022/04/07 02:38:17;;;;;;;12.10;3.07;;;;;;;;;;5048774;28;20748;-69
2022/04/07 02:40:42;;;;;;;12.70;2.87;;;;;;;;;;5049852;28;20185;-69
2022/04/07 02:43:07;;;;;;;15.57;4.23;;;;;;;;;;5049743;28;20173;-67
2022/04/07 02:45:32;;;;;;;20.50;4.00;;;;;;;;;;5048842;28;20177;-69
2022/04/07 02:47:57;;;;;;;15.37;3.50;;;;;;;;;;5049093;28;20228;-69
2022/04/07 02:50:23;;;;;;;25.30;5.33;;;;;;;;;;5049302;28;20184;-69
2022/04/07 02:52:48;;;;;;;15.80;3.63;;;;;;;;;;5047784;28;20225;-69
2022/04/07 02:55:13;;;;;;;12.43;3.80;;;;;;;;;;5048947;28;20190;-68
2022/04/07 02:57:38;;;;;;;20.67;4.00;;;;;;;;;;5051984;28;20201;-67
2022/04/07 03:00:05;;;;;;;16.50;4.00;;;;;;;;;;5048987;28;20217;-67
2022/04/07 03:02:30;;;;;;;18.60;5.67;;;;;;;;;;5043681;28;20715;-67
2022/04/07 03:04:55;;;;;;;17.57;3.83;;;;;;;;;;5047402;28;20276;-68
2022/04/07 03:07:20;;;;;;;16.47;4.00;;;;;;;;;;5048432;28;20170;-68
2022/04/07 03:09:45;;;;;;;14.37;3.17;;;;;;;;;;5046939;28;20651;-68
2022/04/07 03:12:13;;;;;;;18.87;4.33;;;;;;;;;;5047607;28;20230;-69
2022/04/07 03:14:38;;;;;;;13.37;3.30;;;;;;;;;;5051172;28;20264;-68
2022/04/07 03:17:03;;;;;;;15.03;3.77;;;;;;;;;;5051153;28;20656;-67
2022/04/07 03:19:28;;;;;;;17.13;3.83;;;;;;;;;;5052488;28;20495;-68
2022/04/07 03:21:55;;;;;;;16.30;3.73;;;;;;;;;;5049171;28;20255;-68
2022/04/07 03:24:20;;;;;;;16.00;4.70;;;;;;;;;;5044648;28;20182;-68
2022/04/07 03:26:45;;;;;;;20.80;3.37;;;;;;;;;;5050357;28;20224;-68
2022/04/07 03:29:10;;;;;;;17.43;4.67;;;;;;;;;;5043380;28;20202;-68
2022/04/07 03:31:35;;;;;;;13.63;3.97;;;;;;;;;;5046822;28;20228;-67
2022/04/07 03:34:01;;;;;;;12.23;3.80;;;;;;;;;;5049181;28;20194;-68
2022/04/07 03:36:26;;;;;;;15.93;4.07;;;;;;;;;;5047752;28;20261;-70
2022/04/07 03:38:51;;;;;;;16.70;3.90;;;;;;;;;;5051859;28;20213;-68
2022/04/07 03:41:17;;;;;;;11.87;2.90;;;;;;;;;;5045065;28;20617;-68
2022/04/07 03:43:43;;;;;;;16.97;4.13;;;;;;;;;;5049577;28;20198;-68
2022/04/07 03:46:08;;;;;;;19.73;4.37;;;;;;;;;;5053224;28;20269;-68
2022/04/07 03:48:33;;;;;;;16.10;4.63;;;;;;;;;;5044354;28;20282;-68
2022/04/07 03:50:59;;;;;;;12.17;4.20;;;;;;;;;;5048284;28;20200;-68
2022/04/07 03:53:24;;;;;;;16.53;3.87;;;;;;;;;;5047569;28;20229;-68
2022/04/07 03:55:49;;;;;;;17.27;6.77;;;;;;;;;;5051255;28;20276;-69
2022/04/07 03:58:14;;;;;;;12.13;4.00;;;;;;;;;;5046189;28;20691;-68
2022/04/07 04:00:39;;;;;;;18.00;4.67;;;;;;;;;;5047645;28;20192;-68
2022/04/07 04:03:04;;;;;;;15.27;4.40;;;;;;;;;;5046547;28;20232;-68
2022/04/07 04:05:30;;;;;;;11.77;3.53;;;;;;;;;;5050556;28;20177;-68
2022/04/07 04:07:56;;;;;;;14.90;3.60;;;;;;;;;;5050079;28;20202;-68
2022/04/07 04:10:21;;;;;;;17.77;3.80;;;;;;;;;;5048857;28;20181;-68
2022/04/07 04:12:46;;;;;;;14.40;4.43;;;;;;;;;;5048889;28;20615;-69
2022/04/07 04:15:11;;;;;;;15.83;3.67;;;;;;;;;;5050947;28;20190;-68
2022/04/07 04:17:37;;;;;;;14.10;3.30;;;;;;;;;;5051434;28;20549;-68
2022/04/07 04:20:02;;;;;;;8.73;3.53;;;;;;;;;;5044032;28;20186;-68
2022/04/07 04:22:27;;;;;;;9.03;2.60;;;;;;;;;;5047040;28;20197;-68
2022/04/07 04:24:52;;;;;;;11.43;4.43;;;;;;;;;;5050367;28;20205;-69
2022/04/07 04:27:18;;;;;;;13.00;4.00;;;;;;;;;;5051715;28;20722;-69
2022/04/07 04:29:43;;;;;;;13.43;2.83;;;;;;;;;;5051536;28;20667;-68
2022/04/07 04:32:09;;;;;;;12.50;2.77;;;;;;;;;;5050809;28;20177;-69
2022/04/07 04:34:34;;;;;;;8.63;2.47;;;;;;;;;;5051778;28;20705;-69
2022/04/07 04:36:59;;;;;;;12.27;3.43;;;;;;;;;;5052317;28;20272;-69
2022/04/07 04:39:24;;;;;;;10.53;3.53;;;;;;;;;;5051003;28;20722;-69
2022/04/07 04:41:50;;;;;;;11.23;3.07;;;;;;;;;;5052214;28;20201;-69
2022/04/07 04:44:15;;;;;;;15.43;2.87;;;;;;;;;;5050113;28;20190;-68
2022/04/07 04:46:40;;;;;;;11.63;3.77;;;;;;;;;;5057873;28;20185;-70
2022/04/07 04:49:06;;;;;;;10.47;3.60;;;;;;;;;;5049715;28;20205;-69
2022/04/07 04:51:31;;;;;;;7.30;2.80;;;;;;;;;;5052915;28;20181;-69
2022/04/07 04:53:56;;;;;;;8.63;4.10;;;;;;;;;;5048997;28;20186;-69
2022/04/07 04:56:21;;;;;;;11.23;3.33;;;;;;;;;;5051685;28;20182;-67
2022/04/07 04:58:46;;;;;;;11.73;2.43;;;;;;;;;;5051220;28;20698;-67
2022/04/07 05:01:11;;;;;;;9.60;3.27;;;;;;;;;;5041574;28;20233;-67
2022/04/07 05:03:37;;;;;;;13.80;3.77;;;;;;;;;;5045318;28;20170;-67
2022/04/07 05:06:02;;;;;;;8.23;3.33;;;;;;;;;;5043085;28;20210;-68
2022/04/07 05:08:27;;;;;;;8.87;3.50;;;;;;;;;;5037838;28;20201;-68
2022/04/07 05:10:53;;;;;;;7.20;3.10;;;;;;;;;;5042926;28;20178;-68
2022/04/07 05:13:18;;;;;;;8.27;2.80;;;;;;;;;;5043545;28;20717;-67
2022/04/07 05:15:43;;;;;;;14.37;3.10;;;;;;;;;;5048810;28;20264;-68
2022/04/07 05:18:08;;;;;;;8.83;3.63;;;;;;;;;;5048232;28;20209;-69
2022/04/07 05:20:33;;;;;;;7.70;3.57;;;;;;;;;;5051519;28;20178;-69
2022/04/07 05:22:59;;;;;;;8.27;3.50;;;;;;;;;;5046891;28;20771;-69
2022/04/07 05:25:24;;;;;;;10.80;3.60;;;;;;;;;;5046016;28;20593;-69
2022/04/07 05:27:49;;;;;;;7.93;3.30;;;;;;;;;;5047035;28;20201;-70
2022/04/07 05:30:18;;;;;;;12.30;3.03;;;;;;;;;;5047753;28;20170;-69
2022/04/07 05:32:43;;;;;;;7.20;2.60;;;;;;;;;;5046604;28;20657;-71
2022/04/07 05:35:09;;;;;;;8.57;2.80;;;;;;;;;;5051144;28;20213;-68
2022/04/07 05:37:35;;;;;;;19.53;3.90;;;;;;;;;;5051554;28;20295;-70
2022/04/07 05:40:00;;;;;;;7.00;3.47;;;;;;;;;;5044191;28;20447;-68
2022/04/07 05:42:25;;;;;;;6.13;3.20;;;;;;;;;;5051543;28;20202;-71
2022/04/07 05:44:50;;;;;;;7.93;3.13;;;;;;;;;;5055528;28;20226;-68
2022/04/07 05:47:15;;;;;;;8.80;3.57;;;;;;;;;;5051484;28;20681;-68
2022/04/07 05:49:40;;;;;;;5.87;3.03;;;;;;;;;;5051855;28;20174;-68
2022/04/07 05:52:06;;;;;;;5.00;3.63;;;;;;;;;;5053246;28;20173;-68
2022/04/07 05:54:31;;;;;;;6.47;3.50;;;;;;;;;;5049262;28;20253;-68
2022/04/07 05:56:57;;;;;;;7.50;3.67;;;;;;;;;;5039845;28;20176;-70
2022/04/07 05:59:22;;;;;;;4.80;3.17;;;;;;;;;;5048710;28;20280;-67
2022/04/07 06:01:47;;;;;;;3.80;2.73;;;;;;;;;;5051302;28;20825;-69
2022/04/07 06:04:12;;;;;;;4.00;1.80;;;;;;;;;;5058220;28;20265;-68
2022/04/07 06:06:37;;;;;;;4.67;1.63;;;;;;;;;;5051307;28;20178;-68
2022/04/07 06:09:03;;;;;;;2.93;0.70;;;;;;;;;;5051039;28;20217;-69
2022/04/07 06:11:28;;;;;;;2.77;0.70;;;;;;;;;;5051281;28;20173;-70
2022/04/07 06:13:53;;;;;;;7.13;1.10;;;;;;;;;;5050175;28;20181;-69
2022/04/07 06:16:19;;;;;;;4.77;0.90;;;;;;;;;;5058141;28;20177;-71
2022/04/07 06:18:44;;;;;;;2.43;0.90;;;;;;;;;;5047928;28;20193;-69
2022/04/07 06:21:09;;;;;;;3.67;1.00;;;;;;;;;;5041975;28;20225;-71
2022/04/07 06:23:34;;;;;;;2.53;1.07;;;;;;;;;;5043055;28;20192;-71
2022/04/07 06:25:59;;;;;;;5.63;0.97;;;;;;;;;;5041723;28;20544;-70
2022/04/07 06:28:24;;;;;;;4.80;1.40;;;;;;;;;;5048742;28;20215;-70
2022/04/07 06:30:51;;;;;;;4.30;0.87;;;;;;;;;;5046670;28;20210;-70
2022/04/07 06:33:17;;;;;;;4.00;1.30;;;;;;;;;;5049733;28;20174;-71
2022/04/07 06:35:42;;;;;;;2.20;0.97;;;;;;;;;;5050943;28;20231;-71
2022/04/07 06:38:07;;;;;;;5.27;2.70;;;;;;;;;;5047833;28;20275;-71
2022/04/07 06:40:33;;;;;;;3.67;0.93;;;;;;;;;;5048766;28;20165;-71
2022/04/07 06:42:58;;;;;;;10.73;2.33;;;;;;;;;;5050558;28;20689;-71
2022/04/07 06:45:24;;;;;;;2.57;1.07;;;;;;;;;;5050458;28;20180;-71
2022/04/07 06:47:49;;;;;;;8.73;1.53;;;;;;;;;;5049970;28;20193;-68
2022/04/07 06:50:16;;;;;;;4.90;2.00;;;;;;;;;;5051009;28;20181;-71
2022/04/07 06:52:42;;;;;;;11.17;1.53;;;;;;;;;;5050531;28;20177;-70
2022/04/07 06:55:08;;;;;;;8.03;1.60;;;;;;;;;;5047183;28;20548;-70
2022/04/07 06:57:55;;;;;;;8.03;1.40;;;;;;;;;;5048547;28;20221;-70
2022/04/07 07:00:21;;;;;;;10.20;2.23;;;;;;;;;;5048033;28;20188;-70
2022/04/07 07:02:47;;;;;;;8.47;1.67;;;;;;;;;;5044643;28;20235;-68
2022/04/07 07:05:12;;;;;;;5.60;1.70;;;;;;;;;;5046897;28;20765;-69
2022/04/07 07:07:38;;;;;;;11.20;1.33;;;;;;;;;;5050537;28;20277;-69
2022/04/07 07:10:04;;;;;;;6.50;1.27;;;;;;;;;;5043719;28;20224;-69
2022/04/07 07:12:29;;;;;;;4.30;1.33;;;;;;;;;;5049350;28;20184;-72
2022/04/07 07:14:54;;;;;;;5.77;1.27;;;;;;;;;;5048537;28;20647;-68
2022/04/07 07:17:19;;;;;;;5.97;1.47;;;;;;;;;;5033134;28;20193;-69
2022/04/07 07:19:44;;;;;;;7.17;1.23;;;;;;;;;;5044635;28;20595;-69
2022/04/07 07:22:09;;;;;;;7.00;1.10;;;;;;;;;;5041326;28;20205;-69
2022/04/07 07:24:34;;;;;;;3.73;1.40;;;;;;;;;;5041993;28;20714;-68
2022/04/07 07:27:00;;;;;;;2.27;0.67;;;;;;;;;;5044186;28;20174;-69
2022/04/07 07:29:25;;;;;;;5.77;0.90;;;;;;;;;;5021538;28;20270;-69
2022/04/07 07:31:50;;;;;;;5.40;1.20;;;;;;;;;;5032808;28;20287;-70
2022/04/07 07:34:15;;;;;;;3.40;1.00;;;;;;;;;;5046892;28;20728;-72
2022/04/07 07:36:40;;;;;;;3.70;0.93;;;;;;;;;;5046178;28;20177;-69
2022/04/07 07:39:07;;;;;;;3.53;1.07;;;;;;;;;;5042378;28;20676;-69
2022/04/07 07:41:33;;;;;;;2.40;0.90;;;;;;;;;;5041358;28;20206;-69
2022/04/07 07:43:58;;;;;;;2.00;0.60;;;;;;;;;;5038346;28;20544;-69
2022/04/07 07:46:23;;;;;;;3.30;1.17;;;;;;;;;;5047934;28;20213;-70
2022/04/07 07:48:48;;;;;;;4.03;0.80;;;;;;;;;;5044215;28;20198;-70
2022/04/07 07:51:13;;;;;;;2.63;0.60;;;;;;;;;;5048887;28;20194;-69
2022/04/07 07:53:39;;;;;;;1.97;0.80;;;;;;;;;;5045956;28;20181;-69
2022/04/07 07:56:04;;;;;;;3.27;0.57;;;;;;;;;;5045491;28;20177;-69
2022/04/07 07:58:29;;;;;;;1.47;0.70;;;;;;;;;;5046352;28;20202;-70
2022/04/07 08:00:56;;;;;;;2.50;0.70;;;;;;;;;;5041717;28;20658;-69
2022/04/07 08:03:21;;;;;;;3.87;0.97;;;;;;;;;;5050366;28;20231;-70
2022/04/07 08:05:46;;;;;;;2.43;0.87;;;;;;;;;;5043672;28;20261;-69
2022/04/07 08:08:11;;;;;;;2.43;0.80;;;;;;;;;;5046401;28;20693;-69
2022/04/07 08:10:37;;;;;;;3.20;0.80;;;;;;;;;;5047014;28;20232;-69
2022/04/07 08:13:02;;;;;;;6.73;0.90;;;;;;;;;;5045517;28;20182;-69
2022/04/07 08:15:27;;;;;;;4.07;0.90;;;;;;;;;;5048237;28;20185;-69
2022/04/07 08:17:53;;;;;;;6.07;1.27;;;;;;;;;;5047268;28;20691;-69
2022/04/07 08:20:18;;;;;;;6.80;1.20;;;;;;;;;;5044098;28;20232;-69
2022/04/07 08:22:43;;;;;;;5.23;0.93;;;;;;;;;;5045183;28;20213;-70
2022/04/07 08:25:08;;;;;;;4.53;1.57;;;;;;;;;;5048956;28;20243;-68
2022/04/07 08:27:34;;;;;;;4.47;0.90;;;;;;;;;;5045023;28;20201;-69
2022/04/07 08:29:59;;;;;;;3.00;0.67;;;;;;;;;;5046971;28;20189;-69
2022/04/07 08:32:24;;;;;;;3.13;0.80;;;;;;;;;;5035644;28;20242;-70
2022/04/07 08:34:49;;;;;;;3.03;1.30;;;;;;;;;;5049166;28;20177;-70
2022/04/07 08:37:15;;;;;;;4.00;1.00;;;;;;;;;;5059852;28;20590;-69
2022/04/07 08:39:40;;;;;;;3.37;0.90;;;;;;;;;;5052364;28;20197;-69
2022/04/07 08:42:06;;;;;;;5.67;0.80;;;;;;;;;;5050611;28;20198;-69
2022/04/07 08:44:31;;;;;;;2.87;0.70;;;;;;;;;;5049039;28;20596;-69
2022/04/07 08:46:57;;;;;;;4.70;1.10;;;;;;;;;;5041891;28;20174;-69
2022/04/07 08:49:23;;;;;;;5.00;1.63;;;;;;;;;;5046537;28;20286;-68
2022/04/07 08:51:52;;;;;;;4.77;0.83;;;;;;;;;;5044618;28;20537;-68
2022/04/07 08:54:18;;;;;;;4.27;0.73;;;;;;;;;;5052081;28;20568;-68
2022/04/07 08:56:43;;;;;;;3.77;0.70;;;;;;;;;;5050241;28;21341;-69
2022/04/07 08:59:08;;;;;;;6.93;1.67;;;;;;;;;;5049030;28;20205;-69
2022/04/07 09:01:33;;;;;;;6.00;1.20;;;;;;;;;;5051971;28;20280;-69
2022/04/07 09:03:59;;;;;;;3.70;1.13;;;;;;;;;;5046593;28;20186;-67
2022/04/07 09:06:25;;;;;;;4.40;1.13;;;;;;;;;;5051932;28;20261;-68
2022/04/07 09:08:50;;;;;;;4.27;1.33;;;;;;;;;;5048475;28;20209;-68
2022/04/07 09:11:17;;;;;;;5.80;1.30;;;;;;;;;;5049517;28;20177;-68
2022/04/07 09:13:44;;;;;;;3.63;0.70;;;;;;;;;;5050708;28;20538;-68
2022/04/07 09:16:12;;;;;;;4.73;1.00;;;;;;;;;;5047216;28;20312;-68
2022/04/07 09:18:38;;;;;;;6.17;1.40;;;;;;;;;;5048639;28;20252;-70
2022/04/07 09:21:04;;;;;;;3.57;1.80;;;;;;;;;;5045762;28;20653;-69
2022/04/07 09:23:36;;;;;;;4.20;1.30;;;;;;;;;;5048560;28;20257;-68
2022/04/07 09:26:01;;;;;;;4.50;1.07;;;;;;;;;;5049247;28;20670;-69
2022/04/07 09:28:27;;;;;;;7.17;1.90;;;;;;;;;;5048549;28;20209;-69
2022/04/07 09:30:52;;;;;;;4.90;1.27;;;;;;;;;;5047252;28;20181;-67
2022/04/07 09:33:21;;;;;;;6.90;3.10;;;;;;;;;;5048402;28;20182;-70
2022/04/07 09:36:00;;;;;;;8.97;1.67;;;;;;;;;;5049516;28;20726;-69
2022/04/07 09:38:26;;;;;;;5.43;1.03;;;;;;;;;;5047321;28;20213;-70
2022/04/07 09:40:51;;;;;;;6.53;1.63;;;;;;;;;;5049003;28;20180;-69
2022/04/07 09:43:17;;;;;;;6.87;1.40;;;;;;;;;;5043148;28;20217;-69
2022/04/07 09:45:45;;;;;;;7.63;1.57;;;;;;;;;;5047607;28;20558;-69
2022/04/07 09:48:15;;;;;;;8.90;1.33;;;;;;;;;;5045863;28;20545;-69
2022/04/07 09:50:41;;;;;;;6.77;1.30;;;;;;;;;;5047665;28;20186;-69
2022/04/07 09:53:06;;;;;;;6.53;1.40;;;;;;;;;;5050881;28;20631;-69
2022/04/07 09:55:40;;;;;;;5.10;1.43;;;;;;;;;;5046145;28;20235;-69
2022/04/07 09:58:10;;;;;;;7.50;1.30;;;;;;;;;;5044406;28;20582;-70
2022/04/07 10:00:35;;;;;;;6.93;2.13;;;;;;;;;;5045864;28;20610;-68
2022/04/07 10:03:02;;;;;;;4.77;1.40;;;;;;;;;;5048326;28;20240;-69
2022/04/07 10:05:28;;;;;;;7.13;1.77;;;;;;;;;;5046205;28;20201;-69
2022/04/07 10:07:53;;;;;;;8.37;1.70;;;;;;;;;;5047812;28;20229;-69
2022/04/07 10:10:18;;;;;;;6.53;1.73;;;;;;;;;;5046555;28;20185;-69
2022/04/07 10:12:46;;;;;;;4.77;1.83;;;;;;;;;;5046029;28;20190;-68
2022/04/07 10:15:12;;;;;;;6.20;1.30;;;;;;;;;;5050180;28;20185;-67
2022/04/07 10:17:37;;;;;;;10.27;2.37;;;;;;;;;;5047293;28;21017;-68
2022/04/07 10:20:07;;;;;;;8.97;1.73;;;;;;;;;;5039901;28;20178;-69
2022/04/07 10:22:51;;;;;;;7.87;1.87;;;;;;;;;;5047922;28;20624;-68
2022/04/07 10:25:16;;;;;;;8.27;1.93;;;;;;;;;;5046280;28;20173;-70
2022/04/07 10:27:44;;;;;;;5.80;1.80;;;;;;;;;;5046577;28;20617;-69
2022/04/07 10:30:11;;;;;;;8.43;2.20;;;;;;;;;;5051043;28;20173;-67
2022/04/07 10:32:38;;;;;;;10.40;2.83;;;;;;;;;;5048991;28;20710;-69
2022/04/07 10:35:03;;;;;;;10.80;2.50;;;;;;;;;;5049823;28;20250;-70
2022/04/07 10:37:43;;;;;;;8.37;2.07;;;;;;;;;;5043100;28;20214;-68
2022/04/07 10:40:26;;;;;;;9.80;1.73;;;;;;;;;;5050340;28;20181;-68
2022/04/07 10:43:03;;;;;;;6.87;2.00;;;;;;;;;;5045340;28;20209;-68
2022/04/07 10:45:35;;;;;;;15.60;2.93;;;;;;;;;;5047467;28;20591;-69
2022/04/07 10:48:16;;;;;;;19.33;2.67;;;;;;;;;;5044210;28;20746;-69
2022/04/07 10:50:49;;;;;;;5.67;1.93;;;;;;;;;;5049125;28;20184;-69
2022/04/07 10:53:21;;;;;;;12.67;2.77;;;;;;;;;;5049263;28;20467;-69
2022/04/07 10:55:58;;;;;;;12.40;3.53;;;;;;;;;;5049047;28;20538;-69
2022/04/07 10:58:42;;;;;;;6.00;1.80;;;;;;;;;;5046786;28;20633;-68
2022/04/07 11:01:12;;;;;;;13.27;2.80;;;;;;;;;;5045991;28;20184;-69
2022/04/07 11:03:37;;;;;;;10.40;2.47;;;;;;;;;;5048717;28;20185;-70
2022/04/07 11:06:10;;;;;;;13.13;2.80;;;;;;;;;;5047629;28;20165;-69
2022/04/07 11:08:35;;;;;;;7.47;2.00;;;;;;;;;;5044676;28;20208;-69
2022/04/07 11:11:00;;;;;;;9.60;2.00;;;;;;;;;;5047348;28;20261;-67
2022/04/07 11:13:42;;;;;;;9.47;2.03;;;;;;;;;;5047216;28;20269;-68
2022/04/07 11:16:14;;;;;;;6.63;2.03;;;;;;;;;;5045790;28;20181;-68
2022/04/07 11:18:42;;;;;;;12.83;2.47;;;;;;;;;;5046406;28;20282;-67
2022/04/07 11:21:08;;;;;;;9.77;2.40;;;;;;;;;;5044180;28;20601;-67
2022/04/07 11:23:41;;;;;;;7.93;2.20;;;;;;;;;;5044864;28;20182;-68
2022/04/07 11:26:17;;;;;;;12.03;3.43;;;;;;;;;;5040955;28;20182;-68
2022/04/07 11:28:57;;;;;;;10.30;2.47;;;;;;;;;;5041752;28;20800;-68
2022/04/07 11:31:57;;;;;;;15.00;3.30;;;;;;;;;;5039466;28;20174;-69
2022/04/07 11:34:41;;;;;;;14.23;2.10;;;;;;;;;;5007366;28;20695;-69
2022/04/07 11:37:07;;;;;;;12.23;2.27;;;;;;;;;;5046093;28;20213;-69
2022/04/07 11:39:33;;;;;;;14.17;2.60;;;;;;;;;;5046603;28;20671;-69
2022/04/07 11:41:59;;;;;;;9.13;1.80;;;;;;;;;;5049134;28;20220;-69
2022/04/07 11:44:25;;;;;;;14.77;3.40;;;;;;;;;;5050667;28;20235;-70
2022/04/07 11:46:51;;;;;;;10.33;2.40;;;;;;;;;;5052705;28;20177;-67
2022/04/07 11:49:16;;;;;;;10.67;1.80;;;;;;;;;;5049490;28;20201;-68
2022/04/07 11:51:44;;;;;;;11.83;2.27;;;;;;;;;;5053531;28;20672;-68
2022/04/07 11:54:09;;;;;;;10.03;2.93;;;;;;;;;;5047136;28;20557;-68
2022/04/07 11:56:38;;;;;;;9.70;2.20;;;;;;;;;;5047142;28;20184;-69
2022/04/07 11:59:11;;;;;;;7.47;1.87;;;;;;;;;;5048091;28;20220;-67
2022/04/07 12:01:37;;;;;;;5.37;1.73;;;;;;;;;;5041380;28;20288;-68
2022/04/07 12:04:02;;;;;;;11.40;2.20;;;;;;;;;;5047470;28;20300;-68
2022/04/07 12:06:29;;;;;;;10.60;2.40;;;;;;;;;;5047725;28;20181;-69
2022/04/07 12:08:58;;;;;;;6.07;1.73;;;;;;;;;;5049342;28;20201;-69
2022/04/07 12:11:24;;;;;;;8.40;2.10;;;;;;;;;;5052128;28;20239;-69
2022/04/07 12:13:50;;;;;;;7.90;1.57;;;;;;;;;;5044602;28;20286;-68
2022/04/07 12:16:15;;;;;;;4.33;1.83;;;;;;;;;;5054080;28;20252;-67
2022/04/07 12:18:40;;;;;;;8.37;2.00;;;;;;;;;;5059930;28;20194;-69
2022/04/07 12:21:06;;;;;;;13.30;2.13;;;;;;;;;;5052348;28;20181;-69
2022/04/07 12:23:31;;;;;;;5.53;1.60;;;;;;;;;;5047138;28;20248;-69
2022/04/07 12:26:00;;;;;;;9.03;1.90;;;;;;;;;;5043087;28;20531;-67
2022/04/07 12:28:51;;;;;;;11.27;2.20;;;;;;;;;;5041642;28;20552;-68
2022/04/07 12:31:20;;;;;;;6.95;1.70;;;;;;;;;;5049068;28;20210;-69
2022/04/07 12:33:46;;;;;;;7.90;2.10;;;;;;;;;;5048903;28;20186;-68
2022/04/07 12:36:13;;;;;;;8.18;1.80;;;;;;;;;;5052501;28;20253;-68
2022/04/07 12:38:39;;;;;;;5.23;1.20;;;;;;;;;;5046228;28;20220;-69
2022/04/07 12:41:08;;;;;;;10.00;1.87;;;;;;;;;;5039277;28;20189;-68
2022/04/07 12:43:43;;;;;;;10.43;2.50;;;;;;;;;;5044439;28;20178;-68
2022/04/07 12:46:09;;;;;;;9.60;2.10;;;;;;;;;;5049174;28;20181;-67
2022/04/07 12:48:34;;;;;;;8.13;2.00;;;;;;;;;;5048861;28;20204;-68
2022/04/07 12:51:00;;;;;;;9.23;1.87;;;;;;;;;;5026459;28;20597;-67
2022/04/07 12:53:29;;;;;;;11.23;2.90;;;;;;;;;;5031011;28;20576;-68
2022/04/07 12:55:54;;;;;;;9.33;2.80;;;;;;;;;;5051890;28;20272;-67
2022/04/07 12:58:25;;;;;;;9.37;2.07;;;;;;;;;;5051330;28;20327;-68
2022/04/07 13:00:57;;;;;;;10.13;1.80;;;;;;;;;;5048798;28;20173;-68
2022/04/07 13:03:22;;;;;;;6.57;1.83;;;;;;;;;;5050713;28;20590;-69
2022/04/07 13:05:48;;;;;;;8.80;1.63;;;;;;;;;;5049003;28;20182;-67
2022/04/07 13:08:14;;;;;;;10.20;2.53;;;;;;;;;;5049697;28;20595;-69
2022/04/07 13:10:40;;;;;;;6.70;1.83;;;;;;;;;;5049471;28;20243;-69
2022/04/07 13:13:05;;;;;;;7.95;1.50;;;;;;;;;;5042412;28;20681;-67
2022/04/07 13:15:31;;;;;;;8.43;1.60;;;;;;;;;;5047434;28;20265;-69
2022/04/07 13:17:56;;;;;;;7.57;1.97;;;;;;;;;;5050854;28;20276;-67
2022/04/07 13:20:21;;;;;;;10.93;1.55;;;;;;;;;;5046257;28;20639;-67
2022/04/07 13:22:48;;;;;;;7.32;2.20;;;;;;;;;;5044824;28;20281;-67
2022/04/07 13:25:13;;;;;;;6.57;1.37;;;;;;;;;;5043618;28;20181;-68
2022/04/07 13:27:40;;;;;;;6.77;1.97;;;;;;;;;;5051709;28;20255;-68
2022/04/07 13:30:06;;;;;;;8.63;1.73;;;;;;;;;;5049841;28;20223;-68
2022/04/07 13:32:31;;;;;;;7.10;1.73;;;;;;;;;;5049076;28;20569;-70
2022/04/07 13:34:57;;;;;;;6.53;2.03;;;;;;;;;;5044905;28;20187;-68
2022/04/07 13:37:23;;;;;;;8.37;2.50;;;;;;;;;;5044657;28;20188;-69
2022/04/07 13:39:48;;;;;;;5.63;2.07;;;;;;;;;;5049813;28;20185;-69
2022/04/07 13:42:13;;;;;;;10.50;2.50;;;;;;;;;;5049367;28;20198;-69
2022/04/07 13:44:39;;;;;;;8.60;2.13;;;;;;;;;;5043817;28;20265;-69
2022/04/07 13:47:05;;;;;;;7.82;1.77;;;;;;;;;;5049997;28;20228;-68
2022/04/07 13:49:30;;;;;;;4.03;1.30;;;;;;;;;;5045192;28;20669;-68
2022/04/07 13:51:56;;;;;;;6.27;1.20;;;;;;;;;;5049016;28;20170;-69
2022/04/07 13:54:21;;;;;;;5.40;1.50;;;;;;;;;;5046752;28;20260;-68
2022/04/07 13:56:47;;;;;;;7.50;1.60;;;;;;;;;;5050831;28;20176;-68
2022/04/07 13:59:12;;;;;;;7.00;2.00;;;;;;;;;;5050253;28;20717;-68
2022/04/07 14:01:37;;;;;;;7.70;1.13;;;;;;;;;;5050185;28;20284;-67
2022/04/07 14:04:03;;;;;;;6.23;1.20;;;;;;;;;;5049645;28;20177;-70
2022/04/07 14:06:28;;;;;;;6.63;1.23;;;;;;;;;;5044599;28;20173;-69
2022/04/07 14:08:53;;;;;;;4.47;1.40;;;;;;;;;;5043759;28;20205;-69
2022/04/07 14:11:19;;;;;;;8.03;1.37;;;;;;;;;;5045292;28;20177;-68
2022/04/07 14:13:44;;;;;;;5.53;1.40;;;;;;;;;;5046405;28;20235;-69
2022/04/07 14:16:10;;;;;;;2.33;1.10;;;;;;;;;;5049173;28;20205;-71
2022/04/07 14:18:35;;;;;;;5.17;1.57;;;;;;;;;;5048621;28;20201;-69
2022/04/07 14:21:01;;;;;;;3.43;1.37;;;;;;;;;;5048733;28;20177;-69
2022/04/07 14:23:26;;;;;;;4.43;1.43;;;;;;;;;;5042944;28;20190;-68
2022/04/07 14:25:51;;;;;;;8.20;1.40;;;;;;;;;;5040250;28;20182;-68
2022/04/07 14:28:16;;;;;;;5.00;1.53;;;;;;;;;;5047816;28;20205;-69
2022/04/07 14:30:42;;;;;;;7.80;2.03;;;;;;;;;;5048033;28;20603;-69
2022/04/07 14:33:08;;;;;;;4.87;1.00;;;;;;;;;;5044660;28;20190;-68